Data for 04/06/2010

Time Sea-Level Adjusted Pressure Absolute Pressure Temperature Relative Humidity Dew Point   
(mb) (inHg) (mb) (inHg) (C) (F) (%) (C) (F)
00:05 1007 29.74 836 24.69 0.7 33.3 77 -2.8 26.9
00:10 1007 29.74 836 24.69 0.8 33.4 76 -3 26.6
00:15 1007 29.74 836 24.69 0.8 33.4 77 -2.8 27
00:20 1007 29.74 836 24.69 0.8 33.4 76 -2.9 26.7
00:25 1007 29.74 836 24.69 0.8 33.5 76 -2.9 26.8
00:30 1007 29.74 836 24.69 0.9 33.7 77 -2.7 27.1
00:35 1007 29.74 836 24.69 1 33.8 76 -2.8 26.9
00:40 1007 29.74 836 24.69 1.1 33.9 76 -2.7 27.1
00:45 1007 29.74 836 24.69 1.1 34 77 -2.4 27.7
00:50 1007 29.74 836 24.69 0.9 33.6 79 -2.4 27.6
00:55 1007 29.74 836 24.69 0.6 33 81 -2.4 27.7
01:00 1007 29.74 836 24.69 0.4 32.7 80 -2.6 27.3
01:05 1007 29.74 836 24.69 0.6 33.1 80 -2.5 27.6
01:10 1007 29.74 836 24.69 0.6 33.1 80 -2.4 27.7
01:15 1007 29.74 836 24.69 0.5 33 81 -2.4 27.8
01:20 1007 29.74 836 24.69 0.3 32.6 82 -2.4 27.7
01:25 1007 29.74 836 24.69 0.5 32.8 81 -2.4 27.6
01:30 1007 29.74 836 24.69 0.3 32.5 82 -2.4 27.6
01:35 1007 29.74 836 24.69 0.4 32.6 81 -2.6 27.4
01:40 1007 29.74 836 24.69 0.6 33.1 80 -2.5 27.5
01:45 1007 29.74 836 24.69 0.7 33.3 80 -2.4 27.7
01:50 1007 29.74 836 24.69 0.6 33.1 81 -2.3 27.8
01:55 1007 29.74 836 24.69 0.4 32.7 82 -2.3 27.8
02:00 1007 29.74 836 24.69 0.2 32.4 83 -2.4 27.7
02:05 1007 29.74 836 24.69 0.1 32.2 83 -2.4 27.7
02:10 1007 29.74 837 24.72 0.1 32.2 83 -2.4 27.8
02:15 1007 29.74 837 24.72 0.2 32.4 83 -2.4 27.7
02:20 1007 29.74 837 24.72 0.3 32.6 82 -2.4 27.7
02:25 1007 29.74 837 24.72 0.4 32.8 82 -2.3 27.8
02:30 1007 29.74 837 24.72 0.6 33 81 -2.3 27.8
02:35 1007 29.74 837 24.72 0.7 33.2 81 -2.3 27.9
02:40 1007 29.74 837 24.72 0.9 33.5 80 -2.3 27.9
02:45 1008 29.77 837 24.72 0.8 33.4 80 -2.2 28
02:50 1007 29.74 837 24.72 0.8 33.5 80 -2.2 28
02:55 1008 29.77 837 24.72 1.1 33.9 79 -2.2 28.1
03:00 1008 29.77 837 24.72 1.2 34.1 80 -2 28.4
03:05 1008 29.77 837 24.72 1 33.7 80 -2.1 28.1
03:10 1008 29.77 837 24.72 0.8 33.5 80 -2.2 28
03:15 1008 29.77 837 24.72 0.7 33.3 82 -2 28.4
03:20 1008 29.77 837 24.72 0.5 33 85 -1.8 28.8
03:25 1008 29.77 837 24.72 0.3 32.6 87 -1.5 29.2
03:30 1008 29.77 837 24.72 0.1 32.1 90 -1.4 29.4
03:35 1008 29.77 837 24.72 -0.1 31.8 89 -1.7 29
03:40 1008 29.77 837 24.72 -0.4 31.3 89 -1.9 28.5
03:45 1008 29.77 837 24.72 -0.5 31.1 89 -2.1 28.3
03:50 1008 29.77 837 24.72 -0.6 30.9 89 -2.2 28.1
03:55 1008 29.77 838 24.75 -0.6 30.9 89 -2.2 28.1
04:00 1008 29.77 838 24.75 -0.6 31 91 -1.9 28.6
04:05 1008 29.77 838 24.75 -0.6 31 91 -1.8 28.7
04:10 1008 29.77 838 24.75 -0.6 31 91 -1.8 28.7
04:15 1009 29.8 838 24.75 -0.6 30.9 90 -2.1 28.3
04:20 1009 29.8 838 24.75 -0.6 30.9 90 -2 28.3
04:25 1009 29.8 838 24.75 -0.7 30.8 89 -2.3 27.8
04:30 1009 29.8 838 24.75 -0.8 30.6 87 -2.6 27.3
04:35 1009 29.8 838 24.75 -0.8 30.6 86 -2.8 27
04:40 1009 29.8 838 24.75 -0.7 30.7 86 -2.8 27
04:45 1009 29.8 838 24.75 -0.6 30.9 84 -2.9 26.7
04:50 1009 29.8 838 24.75 -0.5 31.2 81 -3.3 26.1
04:55 1009 29.8 839 24.78 -0.4 31.2 81 -3.3 26.1
05:00 1009 29.8 839 24.78 -0.5 31.2 82 -3.2 26.2
05:05 1010 29.83 839 24.78 -0.4 31.2 81 -3.2 26.2
05:10 1010 29.83 839 24.78 -0.8 30.6 89 -2.3 27.8
05:15 1010 29.83 839 24.78 -1.2 29.8 93 -2.3 27.9
05:20 1010 29.83 839 24.78 -1.6 29.2 94 -2.4 27.6
05:25 1010 29.83 839 24.78 -1.7 29 95 -2.4 27.7
05:30 1010 29.83 839 24.78 -1.8 28.7 95 -2.5 27.5
05:35 1010 29.83 840 24.81 -2 28.4 96 -2.6 27.4
05:40 1010 29.83 840 24.81 -2 28.3 96 -2.6 27.3
05:45 1011 29.85 840 24.81 -2.1 28.3 96 -2.6 27.3
05:50 1011 29.85 840 24.81 -2.2 28.1 96 -2.7 27.2
05:55 1011 29.85 840 24.81 -2.3 27.9 97 -2.7 27.1
06:00 1011 29.85 840 24.81 -2.3 27.9 97 -2.7 27.1
06:05 1011 29.85 840 24.81 -2.4 27.7 97 -2.8 26.9
06:10 1011 29.85 840 24.81 -2.5 27.5 97 -3 26.7
06:15 1011 29.85 840 24.81 -2.6 27.3 97 -3.1 26.4
06:20 1011 29.85 840 24.81 -2.7 27.1 97 -3.2 26.3
06:25 1011 29.85 841 24.83 -2.8 27 97 -3.3 26.1
06:30 1011 29.85 841 24.83 -2.9 26.8 97 -3.4 25.9
06:35 1012 29.88 841 24.83 -3 26.7 96 -3.5 25.7
06:40 1012 29.88 841 24.83 -3 26.5 96 -3.5 25.6
06:45 1012 29.88 841 24.83 -3 26.5 96 -3.5 25.6
06:50 1012 29.88 841 24.83 -3.1 26.5 96 -3.6 25.5
06:55 1012 29.88 841 24.83 -3.1 26.5 96 -3.7 25.4
07:00 1012 29.88 841 24.83 -3.1 26.5 95 -3.7 25.3
07:05 1012 29.88 841 24.83 -3.1 26.5 95 -3.8 25.2
07:10 1012 29.88 841 24.83 -3.1 26.5 95 -3.8 25.2
07:15 1012 29.88 841 24.83 -3.1 26.5 95 -3.8 25.1
07:20 1012 29.88 842 24.86 -3.1 26.5 95 -3.8 25.2
07:25 1012 29.88 842 24.86 -3.1 26.5 95 -3.8 25.1
07:30 1012 29.88 842 24.86 -3 26.5 95 -3.8 25.2
07:35 1013 29.91 842 24.86 -3 26.6 94 -3.8 25.1
07:40 1013 29.91 842 24.86 -3 26.6 94 -3.8 25.2
07:45 1013 29.91 842 24.86 -2.9 26.8 94 -3.7 25.3
07:50 1013 29.91 842 24.86 -2.9 26.8 94 -3.7 25.3
07:55 1013 29.91 842 24.86 -2.9 26.7 94 -3.8 25.1
08:00 1013 29.91 842 24.86 -2.9 26.9 94 -3.7 25.3
08:05 1013 29.91 842 24.86 -2.8 26.9 94 -3.7 25.3
08:10 1013 29.91 842 24.86 -2.8 27 93 -3.7 25.3
08:15 1013 29.91 842 24.86 -2.9 26.9 94 -3.7 25.3
08:20 1013 29.91 842 24.86 -2.8 26.9 94 -3.7 25.4
08:25 1013 29.91 842 24.86 -2.8 27 94 -3.6 25.5
08:30 1013 29.91 843 24.89 -2.8 26.9 94 -3.7 25.3
08:35 1013 29.91 843 24.89 -2.8 26.9 94 -3.7 25.4
08:40 1014 29.94 843 24.89 -2.8 27 94 -3.7 25.4
08:45 1014 29.94 843 24.89 -2.8 27 94 -3.7 25.4
08:50 1014 29.94 843 24.89 -2.7 27.1 93 -3.7 25.3
08:55 1014 29.94 843 24.89 -2.8 27 93 -3.7 25.3
09:00 1014 29.94 843 24.89 -2.7 27.1 93 -3.7 25.4
09:05 1014 29.94 843 24.89 -2.7 27.2 93 -3.6 25.5
09:10 1014 29.94 843 24.89 -2.6 27.3 93 -3.6 25.5
09:15 1014 29.94 843 24.89 -2.7 27.2 93 -3.6 25.5
09:20 1014 29.94 843 24.89 -2.6 27.2 93 -3.6 25.5
09:25 1014 29.94 843 24.89 -2.6 27.2 93 -3.6 25.5
09:30 1014 29.94 843 24.89 -2.6 27.4 93 -3.5 25.7
09:35 1014 29.94 844 24.92 -2.5 27.5 93 -3.4 25.8
09:40 1014 29.94 844 24.92 -2.4 27.7 93 -3.4 25.9
09:45 1014 29.94 844 24.92 -2.4 27.7 93 -3.4 25.9
09:50 1015 29.97 844 24.92 -2.4 27.7 93 -3.4 25.9
09:55 1015 29.97 844 24.92 -2.4 27.7 93 -3.4 26
10:00 1015 29.97 844 24.92 -2.4 27.7 94 -3.3 26.1
10:05 1015 29.97 844 24.92 -2.3 27.8 93 -3.3 26.1
10:10 1015 29.97 844 24.92 -2.3 27.9 93 -3.3 26
10:15 1015 29.97 844 24.92 -2.3 27.8 94 -3.2 26.2
10:20 1015 29.97 844 24.92 -2.2 28.1 93 -3.1 26.4
10:25 1015 29.97 844 24.92 -2.2 28 93 -3.1 26.4
10:30 1015 29.97 844 24.92 -2.2 28.1 93 -3.1 26.4
10:35 1015 29.97 845 24.95 -2.1 28.3 94 -2.9 26.7
10:40 1015 29.97 845 24.95 -2 28.3 93 -3 26.7
10:45 1015 29.97 845 24.95 -2 28.3 94 -2.9 26.8
10:50 1016 30 845 24.95 -1.9 28.6 93 -2.8 27
10:55 1016 30 845 24.95 -1.9 28.7 95 -2.6 27.3
11:00 1016 30 845 24.95 -1.5 29.2 92 -2.7 27.2
11:05 1016 30 845 24.95 -1.6 29.1 93 -2.7 27.2
11:10 1016 30 845 24.95 -1.5 29.3 92 -2.6 27.4
11:15 1016 30 845 24.95 -1.7 29 93 -2.7 27.1
11:20 1016 30 845 24.95 -1.7 29 93 -2.6 27.3
11:25 1016 30 845 24.95 -1.4 29.4 93 -2.4 27.7
11:30 1016 30 845 24.95 -1.1 30 91 -2.4 27.6
11:35 1016 30 845 24.95 -1.3 29.6 93 -2.4 27.7
11:40 1016 30 845 24.95 -1.3 29.6 92 -2.4 27.7
11:45 1016 30 845 24.95 -1.1 30 93 -2.2 28.1
11:50 1016 30 845 24.95 -1.2 29.9 92 -2.3 27.8
11:55 1016 30 845 24.95 -1.2 29.9 93 -2.2 28
12:00 1016 30 845 24.95 -0.9 30.3 92 -2.1 28.2
12:05 1016 30 846 24.98 -0.6 30.9 90 -2.1 28.2
12:10 1016 30 846 24.98 -0.5 31.1 88 -2.3 27.9
12:15 1016 30 846 24.98 -0.8 30.5 88 -2.6 27.3
12:20 1016 30 846 24.98 -0.8 30.5 89 -2.5 27.6
12:25 1017 30.03 846 24.98 -0.8 30.5 88 -2.5 27.4
12:30 1017 30.03 846 24.98 -0.8 30.6 88 -2.5 27.5
12:35 1017 30.03 846 24.98 -0.7 30.8 88 -2.5 27.5
12:40 1017 30.03 846 24.98 -0.6 31 88 -2.3 27.9
12:45 1017 30.03 846 24.98 -0.3 31.5 89 -1.9 28.5
12:50 1017 30.03 846 24.98 -0.1 31.8 87 -2 28.5
12:55 1017 30.03 846 24.98 -0.3 31.4 87 -2.3 27.9
13:00 1017 30.03 846 24.98 -0.2 31.6 89 -1.9 28.7
13:05 1017 30.03 846 24.98 0.1 32.2 86 -2 28.5
13:10 1017 30.03 846 24.98 0.2 32.4 86 -1.8 28.7
13:15 1017 30.03 846 24.98 0.1 32.2 86 -1.9 28.6
13:20 1017 30.03 846 24.98 -0.5 31.2 89 -2 28.4
13:25 1017 30.03 846 24.98 0 32 87 -1.9 28.6
13:30 1017 30.03 846 24.98 -0.2 31.7 85 -2.4 27.7
13:35 1017 30.03 846 24.98 -0.4 31.3 87 -2.2 28
13:40 1017 30.03 846 24.98 -0.5 31.2 87 -2.4 27.7
13:45 1017 30.03 846 24.98 0.2 32.3 81 -2.7 27.2
13:50 1017 30.03 846 24.98 0.3 32.5 85 -1.9 28.5
13:55 1017 30.03 846 24.98 0.3 32.5 82 -2.5 27.5
14:00 1017 30.03 846 24.98 0.2 32.4 84 -2.2 28.1
14:05 1017 30.03 846 24.98 0.9 33.7 78 -2.4 27.7
14:10 1017 30.03 847 25.01 0.6 33.1 81 -2.2 28
14:15 1017 30.03 847 25.01 0.3 32.6 84 -2 28.4
14:20 1017 30.03 847 25.01 0.4 32.7 86 -1.8 28.8
14:25 1017 30.03 847 25.01 1.1 33.9 82 -1.7 28.9
14:30 1017 30.03 847 25.01 0.7 33.3 80 -2.3 27.9
14:35 1017 30.03 847 25.01 0.2 32.4 82 -2.5 27.6
14:40 1017 30.03 847 25.01 0.8 33.4 76 -2.9 26.7
14:45 1018 30.06 847 25.01 0.6 33 80 -2.6 27.4
14:50 1018 30.06 847 25.01 0.6 33.2 79 -2.5 27.4
14:55 1018 30.06 847 25.01 0.5 32.9 83 -2.1 28.2
15:00 1018 30.06 847 25.01 0.7 33.3 80 -2.3 27.9
15:05 1018 30.06 847 25.01 0.8 33.4 81 -2.1 28.2
15:10 1018 30.06 847 25.01 0.3 32.5 84 -2.1 28.3
15:15 1018 30.06 847 25.01 0.2 32.3 84 -2.3 27.9
15:20 1018 30.06 847 25.01 0.2 32.4 84 -2.2 28
15:25 1018 30.06 847 25.01 0.6 33 82 -2.2 28.1
15:30 1018 30.06 847 25.01 0.2 32.4 83 -2.3 27.9
15:35 1018 30.06 847 25.01 0.3 32.5 85 -2 28.4
15:40 1018 30.06 847 25.01 0.1 32.1 86 -2 28.4
15:45 1018 30.06 847 25.01 0.3 32.5 84 -2.2 28.1
15:50 1018 30.06 847 25.01 0.2 32.4 84 -2.2 28
15:55 1018 30.06 847 25.01 0.2 32.4 83 -2.3 27.8
16:00 1018 30.06 847 25.01 0.5 32.8 81 -2.4 27.7
16:05 1018 30.06 847 25.01 0.3 32.5 82 -2.5 27.6
16:10 1018 30.06 847 25.01 -0 32 88 -1.7 28.9
16:15 1018 30.06 847 25.01 0 32 91 -1.4 29.5
16:20 1018 30.06 847 25.01 -0 31.9 92 -1.2 29.9
16:25 1018 30.06 848 25.04 0.1 32.3 92 -1.1 30.1
16:30 1018 30.06 848 25.04 0.3 32.6 91 -1 30.3
16:35 1018 30.06 848 25.04 0.7 33.3 90 -0.7 30.7
16:40 1018 30.06 848 25.04 0.9 33.6 89 -0.7 30.7
16:45 1019 30.09 848 25.04 1 33.8 87 -0.9 30.4
16:50 1019 30.09 848 25.04 0.9 33.6 85 -1.3 29.6
16:55 1019 30.09 848 25.04 0.9 33.6 87 -1.1 30
17:00 1019 30.09 848 25.04 0.9 33.6 86 -1.2 29.9
17:05 1019 30.09 848 25.04 0.1 32.2 90 -1.4 29.6
17:10 1019 30.09 848 25.04 0.1 32.2 88 -1.7 29
17:15 1019 30.09 848 25.04 0 32 88 -1.8 28.8
17:20 1019 30.09 848 25.04 -0.1 31.9 87 -1.9 28.5
17:25 1019 30.09 848 25.04 -0.3 31.4 88 -2 28.3
17:30 1019 30.09 848 25.04 -0.2 31.6 89 -1.8 28.8
17:35 1019 30.09 848 25.04 0.3 32.6 88 -1.5 29.3
17:40 1019 30.09 848 25.04 0.8 33.4 84 -1.6 29.2
17:45 1019 30.09 848 25.04 1 33.7 83 -1.6 29.2
17:50 1019 30.09 849 25.07 0.8 33.5 85 -1.4 29.4
17:55 1019 30.09 849 25.07 0.6 33 87 -1.4 29.5
18:00 1019 30.09 849 25.07 0.5 32.8 87 -1.4 29.4
18:05 1020 30.12 849 25.07 0.6 33.1 84 -1.7 29
18:10 1020 30.12 849 25.07 0.4 32.7 86 -1.7 28.9
18:15 1020 30.12 849 25.07 0.5 32.9 86 -1.6 29.1
18:20 1020 30.12 849 25.07 0.6 33 85 -1.7 28.9
18:25 1020 30.12 849 25.07 0.5 32.9 85 -1.8 28.8
18:30 1020 30.12 849 25.07 0.6 33.1 83 -1.9 28.5
18:35 1020 30.12 849 25.07 0.4 32.7 85 -1.8 28.7
18:40 1020 30.12 849 25.07 0 32.1 87 -1.9 28.6
18:45 1020 30.12 849 25.07 -0.4 31.4 86 -2.5 27.5
18:50 1020 30.12 849 25.07 -0.4 31.3 85 -2.6 27.3
18:55 1020 30.12 849 25.07 -0.4 31.3 82 -3.1 26.4
19:00 1020 30.12 849 25.07 -0.2 31.7 80 -3.2 26.3
19:05 1020 30.12 849 25.07 0.1 32.3 77 -3.5 25.8
19:10 1020 30.12 849 25.07 0.1 32.3 75 -3.7 25.3
19:15 1020 30.12 849 25.07 0.1 32.2 74 -4 24.8
19:20 1020 30.12 849 25.07 0 32 74 -4.1 24.6
19:25 1020 30.12 849 25.07 -0 32 74 -4.1 24.6
19:30 1020 30.12 849 25.07 -0.1 31.9 73 -4.3 24.2
19:35 1020 30.12 849 25.07 -0 31.9 73 -4.3 24.2
19:40 1020 30.12 849 25.07 -0.1 31.9 72 -4.6 23.8
19:45 1020 30.12 849 25.07 0 32 72 -4.5 23.9
19:50 1020 30.12 849 25.07 -0 31.9 70 -4.8 23.4
19:55 1020 30.12 849 25.07 -0.1 31.9 70 -4.9 23.1
20:00 1020 30.12 849 25.07 -0 31.9 73 -4.3 24.3
20:05 1020 30.12 849 25.07 -0.2 31.7 76 -3.9 24.9
20:10 1020 30.12 849 25.07 -0.2 31.6 73 -4.4 24
20:15 1020 30.12 849 25.07 -0.3 31.5 74 -4.4 24
20:20 1020 30.12 849 25.07 -0.4 31.3 77 -3.9 25
20:25 1020 30.12 849 25.07 -0.6 30.9 83 -3.1 26.5
20:30 1020 30.12 850 25.1 -1 30.3 84 -3.4 25.9
20:35 1020 30.12 850 25.1 -1 30.1 83 -3.5 25.6
20:40 1020 30.12 850 25.1 -1 30.2 84 -3.4 26
20:45 1021 30.15 850 25.1 -1.1 30 84 -3.5 25.8
20:50 1021 30.15 850 25.1 -1.1 29.9 85 -3.4 25.8
20:55 1021 30.15 850 25.1 -1.1 30.1 83 -3.6 25.5
21:00 1021 30.15 850 25.1 -1.2 29.9 83 -3.6 25.4
21:05 1021 30.15 850 25.1 -1.1 30 84 -3.6 25.6
21:10 1021 30.15 850 25.1 -1.1 30.1 82 -3.8 25.1
21:15 1021 30.15 850 25.1 -1.2 29.8 82 -3.9 25
21:20 1021 30.15 850 25.1 -1.3 29.6 83 -3.9 25
21:25 1021 30.15 850 25.1 -1.4 29.5 84 -3.7 25.3
21:30 1021 30.15 850 25.1 -1.4 29.6 84 -3.8 25.2
21:35 1021 30.15 850 25.1 -1.3 29.7 83 -3.8 25.1
21:40 1021 30.15 851 25.13 -1.1 29.9 81 -4 24.7
21:45 1021 30.15 851 25.13 -1 30.1 84 -3.4 25.8
21:50 1022 30.18 851 25.13 -1.4 29.5 85 -3.6 25.5
21:55 1022 30.18 851 25.13 -1.6 29.1 84 -3.9 24.9
22:00 1022 30.18 851 25.13 -1.6 29 84 -4.1 24.7
22:05 1022 30.18 851 25.13 -1.6 29.2 83 -4.1 24.5
22:10 1022 30.18 851 25.13 -1.6 29.2 84 -3.9 25
22:15 1022 30.18 851 25.13 -1.7 29 85 -3.9 24.9
22:20 1022 30.18 851 25.13 -1.7 28.9 85 -3.9 25
22:25 1022 30.18 851 25.13 -1.9 28.6 85 -4 24.7
22:30 1022 30.18 851 25.13 -1.8 28.8 84 -4.2 24.5
22:35 1022 30.18 851 25.13 -1.6 29 84 -4 24.7
22:40 1022 30.18 851 25.13 -1.5 29.2 84 -3.9 24.9
22:45 1022 30.18 851 25.13 -1.6 29.1 83 -4.1 24.7
22:50 1022 30.18 851 25.13 -1.7 28.9 84 -4.1 24.7
22:55 1022 30.18 851 25.13 -1.8 28.8 83 -4.2 24.4
23:00 1022 30.18 851 25.13 -2 28.5 83 -4.5 23.9
23:05 1022 30.18 851 25.13 -2.1 28.2 82 -4.8 23.4
23:10 1022 30.18 851 25.13 -2.2 28.1 82 -4.8 23.3
23:15 1022 30.18 851 25.13 -2.1 28.2 80 -5.2 22.6
23:20 1022 30.18 851 25.13 -1.9 28.6 78 -5.2 22.7
23:25 1022 30.18 851 25.13 -1.7 28.9 78 -5.1 22.8
23:30 1022 30.18 851 25.13 -1.8 28.7 78 -5.1 22.9
23:35 1022 30.18 851 25.13 -1.9 28.6 79 -5.1 22.8
23:40 1022 30.18 851 25.13 -1.6 29.1 75 -5.4 22.2
23:45 1022 30.18 851 25.13 -2 28.4 76 -5.6 21.9
23:50 1022 30.18 851 25.13 -2.1 28.3 77 -5.6 21.9
23:55 1022 30.18 851 25.13 -2 28.3 75 -5.9 21.3
24:00 1022 30.18 852 25.16 -2 28.4 76 -5.7 21.7